sensor_id;sensor_type;location;lat;lon;timestamp;temperature;humidity
1626;DHT22;806;48.770;9.156;2023-05-23T00:00:16;19.30;99.90
1626;DHT22;806;48.770;9.156;2023-05-23T00:02:43;19.10;99.90
1626;DHT22;806;48.770;9.156;2023-05-23T00:05:11;19.20;99.90
1626;DHT22;806;48.770;9.156;2023-05-23T00:07:40;19.10;99.90
1626;DHT22;806;48.770;9.156;2023-05-23T00:10:08;19.10;99.90
1626;DHT22;806;48.770;9.156;2023-05-23T00:12:36;19.00;99.90
1626;DHT22;806;48.770;9.156;2023-05-23T00:15:04;18.90;99.90
1626;DHT22;806;48.770;9.156;2023-05-23T00:17:33;18.80;99.90
1626;DHT22;806;48.770;9.156;2023-05-23T00:20:02;18.80;99.90
1626;DHT22;806;48.770;9.156;2023-05-23T00:22:29;18.80;99.90
1626;DHT22;806;48.770;9.156;2023-05-23T00:24:56;18.70;99.90
1626;DHT22;806;48.770;9.156;2023-05-23T00:27:26;18.80;99.90
1626;DHT22;806;48.770;9.156;2023-05-23T00:29:55;18.90;99.90
1626;DHT22;806;48.770;9.156;2023-05-23T00:32:22;18.90;99.90
1626;DHT22;806;48.770;9.156;2023-05-23T00:34:49;19.00;99.90
1626;DHT22;806;48.770;9.156;2023-05-23T00:37:18;19.00;99.90
1626;DHT22;806;48.770;9.156;2023-05-23T00:39:46;18.90;99.90
1626;DHT22;806;48.770;9.156;2023-05-23T00:42:13;18.80;99.90
1626;DHT22;806;48.770;9.156;2023-05-23T00:44:40;18.80;99.90
1626;DHT22;806;48.770;9.156;2023-05-23T00:47:09;19.00;99.90
1626;DHT22;806;48.770;9.156;2023-05-23T00:49:38;19.00;99.90
1626;DHT22;806;48.770;9.156;2023-05-23T00:52:06;18.90;99.90
1626;DHT22;806;48.770;9.156;2023-05-23T00:54:33;19.00;99.90
1626;DHT22;806;48.770;9.156;2023-05-23T00:57:02;19.00;99.90
1626;DHT22;806;48.770;9.156;2023-05-23T00:59:30;18.90;99.90
1626;DHT22;806;48.770;9.156;2023-05-23T01:01:58;18.90;99.90
1626;DHT22;806;48.770;9.156;2023-05-23T01:04:28;19.00;99.90
1626;DHT22;806;48.770;9.156;2023-05-23T01:06:58;19.10;99.90
1626;DHT22;806;48.770;9.156;2023-05-23T01:09:27;19.10;99.90
1626;DHT22;806;48.770;9.156;2023-05-23T01:12:07;19.10;99.90
1626;DHT22;806;48.770;9.156;2023-05-23T01:14:43;19.10;99.90
1626;DHT22;806;48.770;9.156;2023-05-23T01:17:16;18.90;99.90
1626;DHT22;806;48.770;9.156;2023-05-23T01:19:58;18.90;99.90
1626;DHT22;806;48.770;9.156;2023-05-23T01:22:39;19.00;99.90
1626;DHT22;806;48.770;9.156;2023-05-23T01:25:14;19.00;99.90
1626;DHT22;806;48.770;9.156;2023-05-23T01:27:53;19.00;99.90
1626;DHT22;806;48.770;9.156;2023-05-23T01:30:23;19.10;99.90
1626;DHT22;806;48.770;9.156;2023-05-23T01:32:53;19.00;99.90
1626;DHT22;806;48.770;9.156;2023-05-23T01:35:24;18.90;99.90
1626;DHT22;806;48.770;9.156;2023-05-23T01:37:52;18.90;99.90
1626;DHT22;806;48.770;9.156;2023-05-23T01:40:19;18.80;99.90
1626;DHT22;806;48.770;9.156;2023-05-23T01:42:46;18.80;99.90
1626;DHT22;806;48.770;9.156;2023-05-23T01:45:15;18.80;99.90
1626;DHT22;806;48.770;9.156;2023-05-23T01:47:43;18.90;99.90
1626;DHT22;806;48.770;9.156;2023-05-23T01:50:12;18.80;99.90
1626;DHT22;806;48.770;9.156;2023-05-23T01:52:40;18.90;99.90
1626;DHT22;806;48.770;9.156;2023-05-23T01:55:08;18.80;99.90
1626;DHT22;806;48.770;9.156;2023-05-23T01:57:37;18.80;99.90
1626;DHT22;806;48.770;9.156;2023-05-23T02:00:06;18.70;99.90
1626;DHT22;806;48.770;9.156;2023-05-23T02:02:36;18.70;99.90
1626;DHT22;806;48.770;9.156;2023-05-23T02:05:04;18.70;99.90
1626;DHT22;806;48.770;9.156;2023-05-23T02:07:31;18.60;99.90
1626;DHT22;806;48.770;9.156;2023-05-23T02:09:58;18.60;99.90
1626;DHT22;806;48.770;9.156;2023-05-23T02:12:25;18.60;99.90
1626;DHT22;806;48.770;9.156;2023-05-23T02:14:53;18.60;99.90
1626;DHT22;806;48.770;9.156;2023-05-23T02:17:20;18.50;99.90
1626;DHT22;806;48.770;9.156;2023-05-23T02:19:50;18.50;99.90
1626;DHT22;806;48.770;9.156;2023-05-23T02:22:17;18.40;99.90
1626;DHT22;806;48.770;9.156;2023-05-23T02:24:44;18.50;99.90
1626;DHT22;806;48.770;9.156;2023-05-23T02:27:11;18.40;99.90
1626;DHT22;806;48.770;9.156;2023-05-23T02:29:38;18.40;99.90
1626;DHT22;806;48.770;9.156;2023-05-23T02:32:05;18.30;99.90
1626;DHT22;806;48.770;9.156;2023-05-23T02:34:32;18.30;99.90
1626;DHT22;806;48.770;9.156;2023-05-23T02:37:00;18.40;99.90
1626;DHT22;806;48.770;9.156;2023-05-23T02:39:27;18.40;99.90
1626;DHT22;806;48.770;9.156;2023-05-23T02:41:54;18.50;99.90
1626;DHT22;806;48.770;9.156;2023-05-23T02:44:21;18.40;99.90
1626;DHT22;806;48.770;9.156;2023-05-23T02:46:48;18.50;99.90
1626;DHT22;806;48.770;9.156;2023-05-23T02:49:15;18.60;99.90
1626;DHT22;806;48.770;9.156;2023-05-23T02:51:42;18.60;99.90
1626;DHT22;806;48.770;9.156;2023-05-23T02:54:10;18.60;99.90
1626;DHT22;806;48.770;9.156;2023-05-23T02:56:37;18.50;99.90
1626;DHT22;806;48.770;9.156;2023-05-23T02:59:04;18.50;99.90
1626;DHT22;806;48.770;9.156;2023-05-23T03:01:32;18.50;99.90
1626;DHT22;806;48.770;9.156;2023-05-23T03:03:59;18.40;99.90
1626;DHT22;806;48.770;9.156;2023-05-23T03:06:26;18.40;99.90
1626;DHT22;806;48.770;9.156;2023-05-23T03:08:53;18.40;99.90
1626;DHT22;806;48.770;9.156;2023-05-23T03:11:23;18.50;99.90
1626;DHT22;806;48.770;9.156;2023-05-23T03:13:50;18.50;99.90
1626;DHT22;806;48.770;9.156;2023-05-23T03:16:17;18.50;99.90
1626;DHT22;806;48.770;9.156;2023-05-23T03:18:44;18.50;99.90
1626;DHT22;806;48.770;9.156;2023-05-23T03:21:11;18.50;99.90
1626;DHT22;806;48.770;9.156;2023-05-23T03:23:38;18.50;99.90
1626;DHT22;806;48.770;9.156;2023-05-23T03:26:05;18.50;99.90
1626;DHT22;806;48.770;9.156;2023-05-23T03:28:33;18.50;99.90
1626;DHT22;806;48.770;9.156;2023-05-23T03:31:01;18.50;99.90
1626;DHT22;806;48.770;9.156;2023-05-23T03:33:28;18.30;99.90
1626;DHT22;806;48.770;9.156;2023-05-23T03:35:54;18.20;99.90
1626;DHT22;806;48.770;9.156;2023-05-23T03:38:22;18.20;99.90
1626;DHT22;806;48.770;9.156;2023-05-23T03:40:49;18.30;99.90
1626;DHT22;806;48.770;9.156;2023-05-23T03:43:16;18.40;99.90
1626;DHT22;806;48.770;9.156;2023-05-23T03:45:44;18.30;99.90
1626;DHT22;806;48.770;9.156;2023-05-23T03:48:11;18.40;99.90
1626;DHT22;806;48.770;9.156;2023-05-23T03:50:38;18.40;99.90
1626;DHT22;806;48.770;9.156;2023-05-23T03:53:05;18.40;99.90
1626;DHT22;806;48.770;9.156;2023-05-23T03:55:32;18.40;99.90
1626;DHT22;806;48.770;9.156;2023-05-23T03:57:59;18.40;99.90
1626;DHT22;806;48.770;9.156;2023-05-23T04:00:26;18.50;99.90
1626;DHT22;806;48.770;9.156;2023-05-23T04:02:55;18.40;99.90
1626;DHT22;806;48.770;9.156;2023-05-23T04:05:22;18.40;99.90
1626;DHT22;806;48.770;9.156;2023-05-23T04:07:49;18.30;99.90
1626;DHT22;806;48.770;9.156;2023-05-23T04:10:17;18.30;99.90
1626;DHT22;806;48.770;9.156;2023-05-23T04:12:44;18.40;99.90
1626;DHT22;806;48.770;9.156;2023-05-23T04:15:12;18.30;99.90
1626;DHT22;806;48.770;9.156;2023-05-23T04:17:39;18.40;99.90
1626;DHT22;806;48.770;9.156;2023-05-23T04:20:09;18.30;99.90
1626;DHT22;806;48.770;9.156;2023-05-23T04:22:37;18.30;99.90
1626;DHT22;806;48.770;9.156;2023-05-23T04:25:05;18.20;99.90
1626;DHT22;806;48.770;9.156;2023-05-23T04:27:32;18.10;99.90
1626;DHT22;806;48.770;9.156;2023-05-23T04:29:59;18.10;99.90
1626;DHT22;806;48.770;9.156;2023-05-23T04:32:26;18.20;99.90
1626;DHT22;806;48.770;9.156;2023-05-23T04:34:53;18.20;99.90
1626;DHT22;806;48.770;9.156;2023-05-23T04:37:22;18.30;99.90
1626;DHT22;806;48.770;9.156;2023-05-23T04:39:51;18.20;99.90
1626;DHT22;806;48.770;9.156;2023-05-23T04:42:18;18.20;99.90
1626;DHT22;806;48.770;9.156;2023-05-23T04:44:48;18.20;99.90
1626;DHT22;806;48.770;9.156;2023-05-23T04:47:16;18.20;99.90
1626;DHT22;806;48.770;9.156;2023-05-23T04:49:43;18.30;99.90
1626;DHT22;806;48.770;9.156;2023-05-23T04:52:10;18.30;99.90
1626;DHT22;806;48.770;9.156;2023-05-23T04:54:39;18.40;99.90
1626;DHT22;806;48.770;9.156;2023-05-23T04:57:09;18.40;99.90
1626;DHT22;806;48.770;9.156;2023-05-23T04:59:37;18.20;99.90
1626;DHT22;806;48.770;9.156;2023-05-23T05:02:04;18.10;99.90
1626;DHT22;806;48.770;9.156;2023-05-23T05:04:32;18.30;99.90
1626;DHT22;806;48.770;9.156;2023-05-23T05:06:59;18.30;99.90
1626;DHT22;806;48.770;9.156;2023-05-23T05:09:28;18.40;99.90
1626;DHT22;806;48.770;9.156;2023-05-23T05:11:57;18.50;99.90
1626;DHT22;806;48.770;9.156;2023-05-23T05:14:24;18.50;99.90
1626;DHT22;806;48.770;9.156;2023-05-23T05:16:52;18.50;99.90
1626;DHT22;806;48.770;9.156;2023-05-23T05:19:22;18.60;99.90
1626;DHT22;806;48.770;9.156;2023-05-23T05:21:49;18.50;99.90
1626;DHT22;806;48.770;9.156;2023-05-23T05:24:16;18.50;99.90
1626;DHT22;806;48.770;9.156;2023-05-23T05:26:45;18.50;99.90
1626;DHT22;806;48.770;9.156;2023-05-23T05:29:15;18.50;99.90
1626;DHT22;806;48.770;9.156;2023-05-23T05:31:42;18.50;99.90
1626;DHT22;806;48.770;9.156;2023-05-23T05:34:09;18.40;99.90
1626;DHT22;806;48.770;9.156;2023-05-23T05:36:37;18.40;99.90
1626;DHT22;806;48.770;9.156;2023-05-23T05:39:10;18.40;99.90
1626;DHT22;806;48.770;9.156;2023-05-23T05:41:38;18.20;99.90
1626;DHT22;806;48.770;9.156;2023-05-23T05:44:05;18.20;99.90
1626;DHT22;806;48.770;9.156;2023-05-23T05:46:33;18.40;99.90
1626;DHT22;806;48.770;9.156;2023-05-23T05:49:00;18.40;99.90
1626;DHT22;806;48.770;9.156;2023-05-23T05:51:27;18.50;99.90
1626;DHT22;806;48.770;9.156;2023-05-23T05:53:56;18.40;99.90
1626;DHT22;806;48.770;9.156;2023-05-23T05:56:23;18.40;99.90
1626;DHT22;806;48.770;9.156;2023-05-23T05:58:50;18.50;99.90
1626;DHT22;806;48.770;9.156;2023-05-23T06:01:17;18.50;99.90
1626;DHT22;806;48.770;9.156;2023-05-23T06:03:46;18.60;99.90
1626;DHT22;806;48.770;9.156;2023-05-23T06:06:13;18.70;99.90
1626;DHT22;806;48.770;9.156;2023-05-23T06:08:40;18.90;99.90
1626;DHT22;806;48.770;9.156;2023-05-23T06:11:07;18.80;99.90
1626;DHT22;806;48.770;9.156;2023-05-23T06:13:34;18.80;99.90
1626;DHT22;806;48.770;9.156;2023-05-23T06:16:01;18.80;99.90
1626;DHT22;806;48.770;9.156;2023-05-23T06:18:28;18.70;99.90
1626;DHT22;806;48.770;9.156;2023-05-23T06:20:57;18.60;99.90
1626;DHT22;806;48.770;9.156;2023-05-23T06:23:24;18.60;99.90
1626;DHT22;806;48.770;9.156;2023-05-23T06:25:51;18.70;99.90
1626;DHT22;806;48.770;9.156;2023-05-23T06:28:18;18.70;99.90
1626;DHT22;806;48.770;9.156;2023-05-23T06:30:45;18.80;99.90
1626;DHT22;806;48.770;9.156;2023-05-23T06:33:12;19.00;99.90
1626;DHT22;806;48.770;9.156;2023-05-23T06:35:39;19.00;99.90
1626;DHT22;806;48.770;9.156;2023-05-23T06:38:07;19.20;99.90
1626;DHT22;806;48.770;9.156;2023-05-23T06:40:34;19.20;99.90
1626;DHT22;806;48.770;9.156;2023-05-23T06:43:01;19.20;99.90
1626;DHT22;806;48.770;9.156;2023-05-23T06:45:28;19.10;99.90
1626;DHT22;806;48.770;9.156;2023-05-23T06:47:55;19.00;99.90
1626;DHT22;806;48.770;9.156;2023-05-23T06:50:24;18.80;99.90
1626;DHT22;806;48.770;9.156;2023-05-23T06:52:51;18.80;99.90
1626;DHT22;806;48.770;9.156;2023-05-23T06:55:19;18.60;99.90
1626;DHT22;806;48.770;9.156;2023-05-23T06:57:46;18.40;99.90
1626;DHT22;806;48.770;9.156;2023-05-23T07:00:17;18.50;99.90
1626;DHT22;806;48.770;9.156;2023-05-23T07:02:44;18.50;99.90
1626;DHT22;806;48.770;9.156;2023-05-23T07:05:13;18.70;99.90
1626;DHT22;806;48.770;9.156;2023-05-23T07:07:40;18.70;99.90
1626;DHT22;806;48.770;9.156;2023-05-23T07:10:08;18.60;99.90
1626;DHT22;806;48.770;9.156;2023-05-23T07:12:36;18.50;99.90
1626;DHT22;806;48.770;9.156;2023-05-23T07:15:04;18.40;99.90
1626;DHT22;806;48.770;9.156;2023-05-23T07:17:31;18.40;99.90
1626;DHT22;806;48.770;9.156;2023-05-23T07:19:58;18.40;99.90
1626;DHT22;806;48.770;9.156;2023-05-23T07:22:25;18.40;99.90
1626;DHT22;806;48.770;9.156;2023-05-23T07:24:52;18.30;99.90
1626;DHT22;806;48.770;9.156;2023-05-23T07:27:19;18.20;99.90
1626;DHT22;806;48.770;9.156;2023-05-23T07:29:48;18.30;99.90
1626;DHT22;806;48.770;9.156;2023-05-23T07:32:18;18.30;99.90
1626;DHT22;806;48.770;9.156;2023-05-23T07:34:45;18.20;99.90
1626;DHT22;806;48.770;9.156;2023-05-23T07:37:12;18.20;99.90
1626;DHT22;806;48.770;9.156;2023-05-23T07:39:40;18.40;99.90
1626;DHT22;806;48.770;9.156;2023-05-23T07:42:07;18.30;99.90
1626;DHT22;806;48.770;9.156;2023-05-23T07:44:34;18.10;99.90
1626;DHT22;806;48.770;9.156;2023-05-23T07:47:02;18.00;99.90
1626;DHT22;806;48.770;9.156;2023-05-23T07:49:29;18.00;99.90
1626;DHT22;806;48.770;9.156;2023-05-23T07:51:57;17.90;99.90
1626;DHT22;806;48.770;9.156;2023-05-23T07:54:24;17.80;99.90
1626;DHT22;806;48.770;9.156;2023-05-23T07:56:51;17.90;99.90
1626;DHT22;806;48.770;9.156;2023-05-23T07:59:18;18.10;99.90
1626;DHT22;806;48.770;9.156;2023-05-23T08:01:47;18.20;99.90
1626;DHT22;806;48.770;9.156;2023-05-23T08:04:16;18.10;99.90
1626;DHT22;806;48.770;9.156;2023-05-23T08:06:43;18.20;99.90
1626;DHT22;806;48.770;9.156;2023-05-23T08:09:12;18.10;99.90
1626;DHT22;806;48.770;9.156;2023-05-23T08:11:39;18.20;99.90
1626;DHT22;806;48.770;9.156;2023-05-23T08:14:06;18.40;99.90
1626;DHT22;806;48.770;9.156;2023-05-23T08:16:34;18.40;99.90
1626;DHT22;806;48.770;9.156;2023-05-23T08:19:01;18.50;99.90
1626;DHT22;806;48.770;9.156;2023-05-23T08:21:29;18.50;99.90
1626;DHT22;806;48.770;9.156;2023-05-23T08:23:56;18.50;99.90
1626;DHT22;806;48.770;9.156;2023-05-23T08:26:23;18.50;99.90
1626;DHT22;806;48.770;9.156;2023-05-23T08:28:52;18.50;99.90
1626;DHT22;806;48.770;9.156;2023-05-23T08:31:19;18.20;99.90
1626;DHT22;806;48.770;9.156;2023-05-23T08:33:46;18.00;99.90
1626;DHT22;806;48.770;9.156;2023-05-23T08:36:13;17.90;99.90
1626;DHT22;806;48.770;9.156;2023-05-23T08:38:41;18.00;99.90
1626;DHT22;806;48.770;9.156;2023-05-23T08:41:15;18.00;99.90
1626;DHT22;806;48.770;9.156;2023-05-23T08:43:44;17.60;99.90
1626;DHT22;806;48.770;9.156;2023-05-23T08:46:11;17.50;99.90
1626;DHT22;806;48.770;9.156;2023-05-23T08:48:38;17.50;99.90
1626;DHT22;806;48.770;9.156;2023-05-23T08:51:06;17.50;99.90
1626;DHT22;806;48.770;9.156;2023-05-23T08:53:35;17.50;99.90
1626;DHT22;806;48.770;9.156;2023-05-23T08:56:05;17.60;99.90
1626;DHT22;806;48.770;9.156;2023-05-23T08:58:34;17.70;99.90
1626;DHT22;806;48.770;9.156;2023-05-23T09:01:03;17.80;99.90
1626;DHT22;806;48.770;9.156;2023-05-23T09:03:30;17.70;99.90
1626;DHT22;806;48.770;9.156;2023-05-23T09:05:58;17.80;99.90
1626;DHT22;806;48.770;9.156;2023-05-23T09:08:25;17.90;99.90
1626;DHT22;806;48.770;9.156;2023-05-23T09:10:53;17.70;99.90
1626;DHT22;806;48.770;9.156;2023-05-23T09:13:22;17.80;99.90
1626;DHT22;806;48.770;9.156;2023-05-23T09:16:00;18.00;99.90
1626;DHT22;806;48.770;9.156;2023-05-23T09:18:33;18.00;99.90
1626;DHT22;806;48.770;9.156;2023-05-23T09:21:02;18.20;99.90
1626;DHT22;806;48.770;9.156;2023-05-23T09:23:29;18.20;99.90
1626;DHT22;806;48.770;9.156;2023-05-23T09:26:01;18.20;99.90
1626;DHT22;806;48.770;9.156;2023-05-23T09:28:30;18.30;99.90
1626;DHT22;806;48.770;9.156;2023-05-23T09:30:58;18.10;99.90
1626;DHT22;806;48.770;9.156;2023-05-23T09:33:33;17.90;99.90
1626;DHT22;806;48.770;9.156;2023-05-23T09:36:00;17.70;99.90
1626;DHT22;806;48.770;9.156;2023-05-23T09:38:29;17.60;99.90
1626;DHT22;806;48.770;9.156;2023-05-23T09:40:57;17.80;99.90
1626;DHT22;806;48.770;9.156;2023-05-23T09:43:24;17.90;99.90
1626;DHT22;806;48.770;9.156;2023-05-23T09:45:54;18.10;99.90
1626;DHT22;806;48.770;9.156;2023-05-23T09:48:27;18.10;99.90
1626;DHT22;806;48.770;9.156;2023-05-23T09:50:55;18.20;99.90
1626;DHT22;806;48.770;9.156;2023-05-23T09:53:22;18.20;99.90
1626;DHT22;806;48.770;9.156;2023-05-23T09:55:50;18.30;99.90
1626;DHT22;806;48.770;9.156;2023-05-23T09:58:19;18.50;99.90
1626;DHT22;806;48.770;9.156;2023-05-23T10:00:49;18.50;99.90
1626;DHT22;806;48.770;9.156;2023-05-23T10:03:22;18.60;99.90
1626;DHT22;806;48.770;9.156;2023-05-23T10:05:54;18.60;99.90
1626;DHT22;806;48.770;9.156;2023-05-23T10:08:26;18.60;99.90
1626;DHT22;806;48.770;9.156;2023-05-23T10:14:01;19.10;99.90
1626;DHT22;806;48.770;9.156;2023-05-23T10:16:35;19.40;99.90
1626;DHT22;806;48.770;9.156;2023-05-23T10:19:12;19.50;99.90
1626;DHT22;806;48.770;9.156;2023-05-23T10:21:43;19.70;99.90
1626;DHT22;806;48.770;9.156;2023-05-23T10:24:15;19.40;99.90
1626;DHT22;806;48.770;9.156;2023-05-23T10:26:44;19.90;99.90
1626;DHT22;806;48.770;9.156;2023-05-23T10:29:11;20.40;99.90
1626;DHT22;806;48.770;9.156;2023-05-23T10:31:39;21.00;99.90
1626;DHT22;806;48.770;9.156;2023-05-23T10:34:17;21.40;99.90
1626;DHT22;806;48.770;9.156;2023-05-23T10:36:55;21.70;99.90
1626;DHT22;806;48.770;9.156;2023-05-23T10:39:31;21.60;99.90
1626;DHT22;806;48.770;9.156;2023-05-23T10:42:03;21.40;99.90
1626;DHT22;806;48.770;9.156;2023-05-23T10:44:32;20.90;99.90
1626;DHT22;806;48.770;9.156;2023-05-23T10:47:00;20.70;99.90
1626;DHT22;806;48.770;9.156;2023-05-23T10:49:40;20.60;99.90
1626;DHT22;806;48.770;9.156;2023-05-23T10:52:08;20.10;99.90
1626;DHT22;806;48.770;9.156;2023-05-23T10:54:35;20.10;99.90
1626;DHT22;806;48.770;9.156;2023-05-23T10:57:03;20.20;99.90
1626;DHT22;806;48.770;9.156;2023-05-23T10:59:31;20.50;99.90
1626;DHT22;806;48.770;9.156;2023-05-23T11:01:59;20.70;99.90
1626;DHT22;806;48.770;9.156;2023-05-23T11:04:27;20.60;99.90
1626;DHT22;806;48.770;9.156;2023-05-23T11:06:57;20.40;99.90
1626;DHT22;806;48.770;9.156;2023-05-23T11:09:24;20.40;99.90
1626;DHT22;806;48.770;9.156;2023-05-23T11:11:54;20.30;99.90
1626;DHT22;806;48.770;9.156;2023-05-23T11:14:34;20.40;99.90
1626;DHT22;806;48.770;9.156;2023-05-23T11:17:28;20.70;99.90
1626;DHT22;806;48.770;9.156;2023-05-23T11:19:55;21.00;99.90
1626;DHT22;806;48.770;9.156;2023-05-23T11:22:28;21.10;99.90
1626;DHT22;806;48.770;9.156;2023-05-23T11:24:56;21.10;99.90
1626;DHT22;806;48.770;9.156;2023-05-23T11:27:27;20.90;99.90
1626;DHT22;806;48.770;9.156;2023-05-23T11:29:59;20.90;99.90
1626;DHT22;806;48.770;9.156;2023-05-23T11:32:29;21.00;99.90
1626;DHT22;806;48.770;9.156;2023-05-23T11:34:59;21.00;99.90
1626;DHT22;806;48.770;9.156;2023-05-23T11:37:29;20.90;99.90
1626;DHT22;806;48.770;9.156;2023-05-23T11:39:56;20.90;99.90
1626;DHT22;806;48.770;9.156;2023-05-23T11:42:24;20.80;99.90
1626;DHT22;806;48.770;9.156;2023-05-23T11:44:51;20.50;99.90
1626;DHT22;806;48.770;9.156;2023-05-23T11:47:18;20.60;99.90
1626;DHT22;806;48.770;9.156;2023-05-23T11:49:47;20.60;99.90
1626;DHT22;806;48.770;9.156;2023-05-23T11:52:14;20.70;99.90
1626;DHT22;806;48.770;9.156;2023-05-23T11:54:42;20.80;99.90
1626;DHT22;806;48.770;9.156;2023-05-23T11:57:10;21.00;99.90
1626;DHT22;806;48.770;9.156;2023-05-23T11:59:39;21.00;99.90
1626;DHT22;806;48.770;9.156;2023-05-23T12:02:07;21.00;99.90
1626;DHT22;806;48.770;9.156;2023-05-23T12:04:34;20.50;99.90
1626;DHT22;806;48.770;9.156;2023-05-23T12:07:04;20.30;99.90
1626;DHT22;806;48.770;9.156;2023-05-23T12:09:40;20.70;99.90
1626;DHT22;806;48.770;9.156;2023-05-23T12:12:08;20.90;99.90
1626;DHT22;806;48.770;9.156;2023-05-23T12:14:35;20.70;99.90
1626;DHT22;806;48.770;9.156;2023-05-23T12:17:09;20.60;99.90
1626;DHT22;806;48.770;9.156;2023-05-23T12:19:37;20.80;99.90
1626;DHT22;806;48.770;9.156;2023-05-23T12:22:05;20.80;99.90
1626;DHT22;806;48.770;9.156;2023-05-23T12:24:32;20.80;99.90
1626;DHT22;806;48.770;9.156;2023-05-23T12:27:01;21.30;99.90
1626;DHT22;806;48.770;9.156;2023-05-23T12:29:31;22.00;99.90
1626;DHT22;806;48.770;9.156;2023-05-23T12:32:00;22.70;99.90
1626;DHT22;806;48.770;9.156;2023-05-23T12:34:28;23.20;99.90
1626;DHT22;806;48.770;9.156;2023-05-23T12:36:56;23.10;99.90
1626;DHT22;806;48.770;9.156;2023-05-23T12:39:23;22.80;99.90
1626;DHT22;806;48.770;9.156;2023-05-23T12:41:52;23.10;99.90
1626;DHT22;806;48.770;9.156;2023-05-23T12:44:20;23.10;99.90
1626;DHT22;806;48.770;9.156;2023-05-23T12:46:49;22.60;99.90
1626;DHT22;806;48.770;9.156;2023-05-23T12:49:16;22.40;99.90
1626;DHT22;806;48.770;9.156;2023-05-23T12:51:43;22.50;99.90
1626;DHT22;806;48.770;9.156;2023-05-23T12:54:10;22.80;99.90
1626;DHT22;806;48.770;9.156;2023-05-23T12:56:37;22.40;99.90
1626;DHT22;806;48.770;9.156;2023-05-23T12:59:04;22.30;99.90
1626;DHT22;806;48.770;9.156;2023-05-23T13:01:31;22.60;99.90
1626;DHT22;806;48.770;9.156;2023-05-23T13:04:00;22.90;99.90
1626;DHT22;806;48.770;9.156;2023-05-23T13:06:27;22.60;99.90
1626;DHT22;806;48.770;9.156;2023-05-23T13:08:54;22.90;99.90
1626;DHT22;806;48.770;9.156;2023-05-23T13:11:21;23.40;99.90
1626;DHT22;806;48.770;9.156;2023-05-23T13:13:49;23.90;99.90
1626;DHT22;806;48.770;9.156;2023-05-23T13:16:17;24.40;99.90
1626;DHT22;806;48.770;9.156;2023-05-23T13:18:44;24.10;99.90
1626;DHT22;806;48.770;9.156;2023-05-23T13:21:13;24.00;99.90
1626;DHT22;806;48.770;9.156;2023-05-23T13:23:40;23.40;99.90
1626;DHT22;806;48.770;9.156;2023-05-23T13:26:07;23.30;99.90
1626;DHT22;806;48.770;9.156;2023-05-23T13:28:34;23.30;99.90
1626;DHT22;806;48.770;9.156;2023-05-23T13:31:01;23.20;99.90
1626;DHT22;806;48.770;9.156;2023-05-23T13:33:28;23.10;99.90
1626;DHT22;806;48.770;9.156;2023-05-23T13:35:55;22.80;99.90
1626;DHT22;806;48.770;9.156;2023-05-23T13:38:23;22.30;99.90
1626;DHT22;806;48.770;9.156;2023-05-23T13:40:52;22.00;99.90
1626;DHT22;806;48.770;9.156;2023-05-23T13:43:19;22.00;99.90
1626;DHT22;806;48.770;9.156;2023-05-23T13:45:46;21.90;99.90
1626;DHT22;806;48.770;9.156;2023-05-23T13:48:13;21.90;99.90
1626;DHT22;806;48.770;9.156;2023-05-23T13:50:41;22.00;99.90
1626;DHT22;806;48.770;9.156;2023-05-23T13:53:08;22.20;99.90
1626;DHT22;806;48.770;9.156;2023-05-23T13:55:41;22.30;99.90
1626;DHT22;806;48.770;9.156;2023-05-23T13:58:10;22.30;99.90
1626;DHT22;806;48.770;9.156;2023-05-23T14:00:37;22.20;99.90
1626;DHT22;806;48.770;9.156;2023-05-23T14:03:04;22.30;99.90
1626;DHT22;806;48.770;9.156;2023-05-23T14:05:31;22.10;99.90
1626;DHT22;806;48.770;9.156;2023-05-23T14:07:57;22.00;99.90
1626;DHT22;806;48.770;9.156;2023-05-23T14:10:24;22.00;99.90
1626;DHT22;806;48.770;9.156;2023-05-23T14:12:53;21.90;99.90
1626;DHT22;806;48.770;9.156;2023-05-23T14:15:20;21.70;99.90
1626;DHT22;806;48.770;9.156;2023-05-23T14:17:47;21.50;99.90
1626;DHT22;806;48.770;9.156;2023-05-23T14:20:19;21.60;99.90
1626;DHT22;806;48.770;9.156;2023-05-23T14:22:46;21.90;99.90
1626;DHT22;806;48.770;9.156;2023-05-23T14:25:13;21.80;99.90
1626;DHT22;806;48.770;9.156;2023-05-23T14:27:41;21.60;99.90
1626;DHT22;806;48.770;9.156;2023-05-23T14:30:10;22.00;99.90
1626;DHT22;806;48.770;9.156;2023-05-23T14:32:37;22.60;99.90
1626;DHT22;806;48.770;9.156;2023-05-23T14:35:05;22.90;99.90
1626;DHT22;806;48.770;9.156;2023-05-23T14:37:36;22.50;99.90
1626;DHT22;806;48.770;9.156;2023-05-23T14:40:03;22.60;99.90
1626;DHT22;806;48.770;9.156;2023-05-23T14:42:31;22.60;99.90
1626;DHT22;806;48.770;9.156;2023-05-23T14:44:58;22.50;99.90
1626;DHT22;806;48.770;9.156;2023-05-23T14:47:26;22.40;99.90
1626;DHT22;806;48.770;9.156;2023-05-23T14:49:53;22.60;99.90
1626;DHT22;806;48.770;9.156;2023-05-23T14:52:20;22.80;99.90
1626;DHT22;806;48.770;9.156;2023-05-23T14:54:47;22.60;99.90
1626;DHT22;806;48.770;9.156;2023-05-23T14:57:14;22.70;99.90
1626;DHT22;806;48.770;9.156;2023-05-23T14:59:41;22.30;99.90
1626;DHT22;806;48.770;9.156;2023-05-23T15:02:08;22.20;99.90
1626;DHT22;806;48.770;9.156;2023-05-23T15:04:37;21.70;99.90
1626;DHT22;806;48.770;9.156;2023-05-23T15:07:05;21.70;99.90
1626;DHT22;806;48.770;9.156;2023-05-23T15:09:32;21.70;99.90
1626;DHT22;806;48.770;9.156;2023-05-23T15:11:59;21.90;99.90
1626;DHT22;806;48.770;9.156;2023-05-23T15:14:26;22.00;99.90
1626;DHT22;806;48.770;9.156;2023-05-23T15:16:54;22.10;99.90
1626;DHT22;806;48.770;9.156;2023-05-23T15:19:21;22.00;99.90
1626;DHT22;806;48.770;9.156;2023-05-23T15:21:50;22.00;99.90
1626;DHT22;806;48.770;9.156;2023-05-23T15:24:17;22.10;99.90
1626;DHT22;806;48.770;9.156;2023-05-23T15:26:44;22.20;99.90
1626;DHT22;806;48.770;9.156;2023-05-23T15:29:11;22.40;99.90
1626;DHT22;806;48.770;9.156;2023-05-23T15:31:40;22.30;99.90
1626;DHT22;806;48.770;9.156;2023-05-23T15:34:07;22.20;99.90
1626;DHT22;806;48.770;9.156;2023-05-23T15:36:34;22.50;99.90
1626;DHT22;806;48.770;9.156;2023-05-23T15:39:02;22.50;99.90
1626;DHT22;806;48.770;9.156;2023-05-23T15:41:30;22.50;99.90
1626;DHT22;806;48.770;9.156;2023-05-23T15:43:57;22.50;99.90
1626;DHT22;806;48.770;9.156;2023-05-23T15:46:25;22.50;99.90
1626;DHT22;806;48.770;9.156;2023-05-23T15:48:52;22.30;99.90
1626;DHT22;806;48.770;9.156;2023-05-23T15:51:24;22.10;99.90
1626;DHT22;806;48.770;9.156;2023-05-23T15:53:51;22.10;99.90
1626;DHT22;806;48.770;9.156;2023-05-23T15:56:19;21.90;99.90
1626;DHT22;806;48.770;9.156;2023-05-23T15:58:46;21.90;99.90
1626;DHT22;806;48.770;9.156;2023-05-23T16:01:13;21.60;99.90
1626;DHT22;806;48.770;9.156;2023-05-23T16:03:40;21.50;99.90
1626;DHT22;806;48.770;9.156;2023-05-23T16:06:07;21.50;99.90
1626;DHT22;806;48.770;9.156;2023-05-23T16:08:34;21.40;99.90
1626;DHT22;806;48.770;9.156;2023-05-23T16:11:01;21.40;99.90
1626;DHT22;806;48.770;9.156;2023-05-23T16:13:30;21.30;99.90
1626;DHT22;806;48.770;9.156;2023-05-23T16:15:57;21.20;99.90
1626;DHT22;806;48.770;9.156;2023-05-23T16:18:24;21.20;99.90
1626;DHT22;806;48.770;9.156;2023-05-23T16:20:51;21.20;99.90
1626;DHT22;806;48.770;9.156;2023-05-23T16:23:19;21.00;99.90
1626;DHT22;806;48.770;9.156;2023-05-23T16:25:46;20.80;99.90